Grayburg, Texas
Current Conditions -  °F | °C
As of 8:55 AM on Friday 19 Dec 2014 (Local Time) from KBMT Reporting Station
Heavy Rain Heavy Rain  
Wind Chill: 57°   Ceiling: 500
Heat Index: 57°   Visibility: 4mi
Dew Point: 56°   Wind: 9mph
Humidity: 99%   Direction: 360°N
Pressure: 30.09"   Gusts: NA
Location:  30.1611°N, 94.4087°W
Report Text: KBMT 191455Z AUTO 36008KT 4SM +RA OVC005 14/14 A3009 RMK AO2 T01380136
Loading
Personal Weather Stations






























Interactive Weather Map New forecast layout! Learn more

10-Day Weather Forecast

Advertisements
Track Severe Weather on mobile